createdAt,value
2022-11-29T00:02:38.095Z,18.25
2022-11-29T00:07:46.799Z,19.60
2022-11-29T00:12:54.290Z,18.40
2022-11-29T00:18:13.612Z,18.67
2022-11-29T00:24:19.306Z,17.98
2022-11-29T00:29:24.967Z,16.35
2022-11-29T00:34:33.867Z,18.02
2022-11-29T00:39:38.189Z,17.77
2022-11-29T00:44:47.448Z,16.80
2022-11-29T00:49:55.206Z,16.67
2022-11-29T00:55:04.092Z,17.05
2022-11-29T01:00:21.119Z,16.13
2022-11-29T01:05:26.088Z,16.67
2022-11-29T01:10:34.957Z,17.88
2022-11-29T01:15:40.144Z,17.30
2022-11-29T01:20:50.528Z,13.43
2022-11-29T01:25:59.130Z,10.75
2022-11-29T01:31:14.981Z,10.02
2022-11-29T01:36:18.576Z,13.65
2022-11-29T01:41:25.054Z,17.05
2022-11-29T01:46:32.724Z,15.27
2022-11-29T01:51:44.802Z,13.98
2022-11-29T01:57:07.438Z,14.77
2022-11-29T02:19:04.239Z,26.48
2022-11-29T02:25:01.904Z,20.95
2022-11-29T02:30:34.836Z,14.00
2022-11-29T02:36:02.042Z,14.93
2022-11-29T02:41:18.363Z,14.07
2022-11-29T02:46:30.700Z,16.08
2022-11-29T02:51:41.860Z,10.73
2022-11-29T02:56:46.627Z,8.98
2022-11-29T03:01:53.757Z,10.18
2022-11-29T03:07:03.481Z,9.73
2022-11-29T03:17:22.755Z,10.30
2022-11-29T03:22:33.733Z,9.93
2022-11-29T03:27:40.303Z,11.38
2022-11-29T03:32:47.473Z,16.02
2022-11-29T03:37:57.684Z,14.95
2022-11-29T03:43:03.945Z,15.50
2022-11-29T03:48:10.900Z,29.92
2022-11-29T03:53:18.986Z,19.85
2022-11-29T03:58:48.591Z,13.02
2022-11-29T04:04:09.076Z,12.88
2022-11-29T04:09:36.372Z,13.15
2022-11-29T04:15:20.141Z,14.73
2022-11-29T04:20:52.214Z,14.00
2022-11-29T04:26:34.955Z,15.05
2022-11-29T04:31:43.392Z,16.15
2022-11-29T04:37:15.999Z,22.35
2022-11-29T04:42:48.876Z,12.02
2022-11-29T04:47:57.478Z,16.27
2022-11-29T04:53:47.534Z,12.10
2022-11-29T04:58:57.015Z,15.35
2022-11-29T05:04:05.180Z,11.43
2022-11-29T05:09:12.519Z,11.65
2022-11-29T05:14:21.510Z,13.60
2022-11-29T05:20:02.550Z,12.85
2022-11-29T05:25:36.962Z,11.10
2022-11-29T05:31:09.485Z,10.85
2022-11-29T05:36:15.967Z,11.30
2022-11-29T05:41:39.521Z,12.10
2022-11-29T05:46:51.981Z,11.18
2022-11-29T05:51:59.669Z,11.07
2022-11-29T05:57:10.955Z,9.63
2022-11-29T06:02:27.271Z,8.70
2022-11-29T06:07:51.626Z,7.63
2022-11-29T06:13:03.080Z,8.38
2022-11-29T06:18:21.900Z,10.07
2022-11-29T06:23:53.670Z,10.93
2022-11-29T06:29:02.586Z,13.25
2022-11-29T06:40:16.226Z,10.95
2022-11-29T06:45:22.170Z,7.82
2022-11-29T07:06:47.939Z,11.65
2022-11-29T07:11:55.218Z,10.25
2022-11-29T07:17:02.201Z,9.63
2022-11-29T07:22:24.286Z,10.15
2022-11-29T07:27:31.103Z,9.07
2022-11-29T07:32:57.226Z,8.25
2022-11-29T07:43:42.859Z,9.13
2022-11-29T07:49:12.330Z,8.68
2022-11-29T07:54:22.159Z,11.33
2022-11-29T07:59:27.752Z,12.20
2022-11-29T08:04:34.462Z,14.05
2022-11-29T08:09:39.785Z,14.18
2022-11-29T08:14:43.797Z,15.00
2022-11-29T08:19:49.202Z,14.60
2022-11-29T08:24:54.884Z,19.25
2022-11-29T08:30:00.321Z,13.15
2022-11-29T08:35:05.195Z,12.85
2022-11-29T08:40:13.925Z,13.43
2022-11-29T08:45:25.375Z,14.93
2022-11-29T08:50:32.280Z,23.40
2022-11-29T08:55:45.632Z,15.85
2022-11-29T09:01:00.871Z,13.13
2022-11-29T09:06:12.534Z,16.73
2022-11-29T09:11:26.637Z,13.32
2022-11-29T09:16:33.138Z,11.05
2022-11-29T09:21:38.941Z,8.65
2022-11-29T09:26:51.123Z,10.57
2022-11-29T09:31:56.463Z,11.30
2022-11-29T09:37:06.451Z,13.98
2022-11-29T09:42:23.148Z,12.23
2022-11-29T09:47:48.460Z,13.05
2022-11-29T09:52:55.974Z,12.38
2022-11-29T09:58:04.223Z,11.52
2022-11-29T10:03:13.419Z,12.23
2022-11-29T10:08:23.363Z,13.48
2022-11-29T10:13:31.065Z,10.55
2022-11-29T10:18:36.907Z,11.20
2022-11-29T10:23:45.126Z,12.48
2022-11-29T10:29:00.901Z,12.07
2022-11-29T10:34:18.475Z,12.13
2022-11-29T10:39:24.823Z,12.00
2022-11-29T10:44:29.951Z,9.65
2022-11-29T10:49:34.535Z,8.68
2022-11-29T10:54:40.167Z,8.90
2022-11-29T11:00:01.059Z,9.10
2022-11-29T11:05:05.395Z,7.43
2022-11-29T11:10:19.268Z,7.25
2022-11-29T11:15:33.149Z,10.20
2022-11-29T11:20:46.120Z,9.05
2022-11-29T11:25:50.821Z,10.85
2022-11-29T11:31:03.451Z,11.88
2022-11-29T11:36:13.759Z,11.63
2022-11-29T11:41:51.816Z,11.25
2022-11-29T11:47:06.021Z,10.05
2022-11-29T11:52:23.210Z,10.07
2022-11-29T11:57:29.724Z,10.85
2022-11-29T12:02:40.691Z,14.05
2022-11-29T12:13:19.326Z,11.45
2022-11-29T12:18:32.227Z,11.23
2022-11-29T12:23:40.065Z,11.70
2022-11-29T12:28:45.057Z,13.18
2022-11-29T12:33:53.300Z,12.60
2022-11-29T12:39:26.330Z,11.73
2022-11-29T12:44:39.469Z,8.50
2022-11-29T12:49:55.704Z,9.30
2022-11-29T12:55:02.305Z,9.50
2022-11-29T13:00:12.538Z,8.93
2022-11-29T13:05:32.920Z,8.45
2022-11-29T13:10:43.218Z,9.65
2022-11-29T13:15:51.523Z,9.18
2022-11-29T13:21:03.297Z,7.63
2022-11-29T13:26:32.361Z,7.82
2022-11-29T13:31:36.307Z,7.35
2022-11-29T13:36:50.069Z,7.63
2022-11-29T13:42:00.806Z,7.38
2022-11-29T13:47:10.672Z,7.05
2022-11-29T13:52:31.306Z,7.28
2022-11-29T13:58:15.061Z,6.97
2022-11-29T14:03:40.309Z,7.95
2022-11-29T14:09:20.057Z,8.02
2022-11-29T14:14:27.154Z,8.32
2022-11-29T14:19:34.040Z,9.02
2022-11-29T14:24:47.545Z,7.88
2022-11-29T14:29:56.882Z,7.60
2022-11-29T14:35:03.392Z,8.43
2022-11-29T14:40:37.203Z,8.25
2022-11-29T14:45:42.536Z,8.60
2022-11-29T14:50:47.549Z,9.48
2022-11-29T14:55:54.352Z,9.15
2022-11-29T15:01:10.761Z,9.13
2022-11-29T15:06:45.124Z,9.85
2022-11-29T15:32:48.330Z,17.73
2022-11-29T15:37:56.648Z,9.67
2022-11-29T15:43:13.751Z,9.27
2022-11-29T15:48:22.244Z,8.55
2022-11-29T15:53:34.662Z,8.70
2022-11-29T15:58:52.154Z,9.85
2022-11-29T16:03:57.575Z,10.68
2022-11-29T16:09:07.163Z,11.43
2022-11-29T16:14:19.623Z,12.88
2022-11-29T16:19:37.190Z,10.63
2022-11-29T16:24:57.579Z,11.00
2022-11-29T16:30:17.665Z,15.90
2022-11-29T16:35:27.166Z,18.25
2022-11-29T16:40:37.265Z,16.60
2022-11-29T16:46:06.992Z,17.17
2022-11-29T16:51:30.799Z,23.75
2022-11-29T16:56:46.674Z,29.05
2022-11-29T17:01:59.504Z,15.63
2022-11-29T17:19:14.578Z,11.18
2022-11-29T17:24:28.506Z,11.05
2022-11-29T17:29:34.425Z,13.05
2022-11-29T17:35:02.743Z,13.02
2022-11-29T17:40:17.270Z,12.97
2022-11-29T17:57:35.669Z,13.38
2022-11-29T18:02:54.184Z,13.80
2022-11-29T18:13:53.670Z,13.23
2022-11-29T18:19:25.653Z,10.10
2022-11-29T18:24:30.667Z,10.75
2022-11-29T18:29:45.595Z,9.93
2022-11-29T18:34:57.120Z,9.93
2022-11-29T18:40:03.966Z,10.95
2022-11-29T18:45:11.314Z,12.55
2022-11-29T18:50:14.963Z,11.18
2022-11-29T18:55:18.567Z,11.32
2022-11-29T19:00:25.732Z,9.95
2022-11-29T19:05:30.675Z,13.23
2022-11-29T19:10:37.095Z,14.25
2022-11-29T19:15:42.363Z,13.32
2022-11-29T19:20:48.604Z,25.45
2022-11-29T19:25:57.485Z,26.02
2022-11-29T19:31:05.449Z,24.55
2022-11-29T19:36:12.427Z,19.40
2022-11-29T19:42:06.363Z,20.65
2022-11-29T19:47:14.531Z,22.75
2022-11-29T19:52:18.479Z,16.88
2022-11-29T19:57:24.343Z,17.60
2022-11-29T20:02:30.682Z,19.92
2022-11-29T20:07:40.780Z,15.93
2022-11-29T20:12:45.088Z,16.88
2022-11-29T20:17:53.602Z,25.25
2022-11-29T20:22:57.529Z,14.60
2022-11-29T20:28:01.460Z,14.52
2022-11-29T20:33:06.688Z,14.63
2022-11-29T20:38:16.942Z,16.38
2022-11-29T20:43:25.285Z,12.30
2022-11-29T20:48:34.380Z,14.50
2022-11-29T20:53:39.510Z,13.18
2022-11-29T20:58:43.316Z,11.73
2022-11-29T21:03:50.665Z,13.15
2022-11-29T21:08:55.549Z,11.90
2022-11-29T21:14:03.501Z,11.05
2022-11-29T21:19:11.120Z,12.48
2022-11-29T21:24:20.173Z,11.93
2022-11-29T21:29:25.212Z,13.40
2022-11-29T21:34:30.607Z,12.75
2022-11-29T21:39:36.597Z,13.65
2022-11-29T21:44:42.386Z,13.38
2022-11-29T21:49:47.606Z,14.18
2022-11-29T21:55:09.508Z,12.50
2022-11-29T22:00:14.046Z,12.25
2022-11-29T22:05:22.232Z,12.50
2022-11-29T22:10:25.867Z,14.63
2022-11-29T22:15:29.832Z,16.58
2022-11-29T22:20:36.205Z,21.45
2022-11-29T22:25:39.939Z,22.75
2022-11-29T22:30:44.413Z,23.67
2022-11-29T22:35:49.657Z,21.77
2022-11-29T22:40:53.287Z,23.30
2022-11-29T22:45:58.050Z,21.30
2022-11-29T22:51:09.300Z,22.35
2022-11-29T22:56:13.047Z,15.95
2022-11-29T23:01:18.577Z,14.32
2022-11-29T23:06:25.125Z,14.77
2022-11-29T23:11:30.576Z,15.20
2022-11-29T23:16:41.063Z,17.17
2022-11-29T23:21:46.811Z,18.30
2022-11-29T23:26:50.334Z,23.92
2022-11-29T23:31:57.832Z,26.13
2022-11-29T23:37:03.344Z,21.88
2022-11-29T23:42:07.300Z,28.70
2022-11-29T23:47:11.919Z,26.60
2022-11-29T23:52:17.198Z,23.40
2022-11-29T23:57:22.729Z,23.55
